sensor_id;sensor_type;location;lat;lon;timestamp;temperature;humidity
837;DHT22;400;53.550;9.932;2023-04-24T00:02:06;14.70;99.90
837;DHT22;400;53.550;9.932;2023-04-24T00:04:36;14.70;99.90
837;DHT22;400;53.550;9.932;2023-04-24T00:07:07;14.70;99.90
837;DHT22;400;53.550;9.932;2023-04-24T00:09:36;14.80;99.90
837;DHT22;400;53.550;9.932;2023-04-24T00:12:04;14.80;99.90
837;DHT22;400;53.550;9.932;2023-04-24T00:14:34;14.80;99.90
837;DHT22;400;53.550;9.932;2023-04-24T00:17:06;14.80;99.90
837;DHT22;400;53.550;9.932;2023-04-24T00:19:35;14.80;99.90
837;DHT22;400;53.550;9.932;2023-04-24T00:22:02;14.80;99.90
837;DHT22;400;53.550;9.932;2023-04-24T00:24:31;14.80;99.90
837;DHT22;400;53.550;9.932;2023-04-24T00:26:58;14.80;99.90
837;DHT22;400;53.550;9.932;2023-04-24T00:29:26;14.70;99.90
837;DHT22;400;53.550;9.932;2023-04-24T00:31:54;14.80;99.90
837;DHT22;400;53.550;9.932;2023-04-24T00:34:21;14.70;99.90
837;DHT22;400;53.550;9.932;2023-04-24T00:36:48;14.70;99.90
837;DHT22;400;53.550;9.932;2023-04-24T00:39:17;14.70;99.90
837;DHT22;400;53.550;9.932;2023-04-24T00:41:46;14.70;99.90
837;DHT22;400;53.550;9.932;2023-04-24T00:44:13;14.60;99.90
837;DHT22;400;53.550;9.932;2023-04-24T00:46:44;14.60;99.90
837;DHT22;400;53.550;9.932;2023-04-24T00:49:13;14.50;99.90
837;DHT22;400;53.550;9.932;2023-04-24T00:51:40;14.50;99.90
837;DHT22;400;53.550;9.932;2023-04-24T00:54:11;14.50;99.90
837;DHT22;400;53.550;9.932;2023-04-24T00:56:38;14.40;99.90
837;DHT22;400;53.550;9.932;2023-04-24T00:59:06;14.40;99.90
837;DHT22;400;53.550;9.932;2023-04-24T01:01:33;14.40;99.90
837;DHT22;400;53.550;9.932;2023-04-24T01:04:02;14.30;99.90
837;DHT22;400;53.550;9.932;2023-04-24T01:06:29;14.30;99.90
837;DHT22;400;53.550;9.932;2023-04-24T01:08:58;14.20;99.90
837;DHT22;400;53.550;9.932;2023-04-24T01:11:26;14.20;99.90
837;DHT22;400;53.550;9.932;2023-04-24T01:13:52;14.20;99.90
837;DHT22;400;53.550;9.932;2023-04-24T01:16:21;14.10;99.90
837;DHT22;400;53.550;9.932;2023-04-24T01:18:48;14.10;99.90
837;DHT22;400;53.550;9.932;2023-04-24T01:21:15;14.10;99.90
837;DHT22;400;53.550;9.932;2023-04-24T01:23:44;14.10;99.90
837;DHT22;400;53.550;9.932;2023-04-24T01:26:11;14.00;99.90
837;DHT22;400;53.550;9.932;2023-04-24T01:28:38;14.10;99.90
837;DHT22;400;53.550;9.932;2023-04-24T01:31:05;14.00;99.90
837;DHT22;400;53.550;9.932;2023-04-24T01:33:32;14.10;99.90
837;DHT22;400;53.550;9.932;2023-04-24T01:36:00;14.10;99.90
837;DHT22;400;53.550;9.932;2023-04-24T01:38:27;14.10;99.90
837;DHT22;400;53.550;9.932;2023-04-24T01:40:56;14.10;99.90
837;DHT22;400;53.550;9.932;2023-04-24T01:43:23;14.10;99.90
837;DHT22;400;53.550;9.932;2023-04-24T01:45:50;14.10;99.90
837;DHT22;400;53.550;9.932;2023-04-24T01:48:17;14.10;99.90
837;DHT22;400;53.550;9.932;2023-04-24T01:50:44;14.10;99.90
837;DHT22;400;53.550;9.932;2023-04-24T01:53:11;14.10;99.90
837;DHT22;400;53.550;9.932;2023-04-24T01:55:38;14.10;99.90
837;DHT22;400;53.550;9.932;2023-04-24T01:58:06;14.10;99.90
837;DHT22;400;53.550;9.932;2023-04-24T02:00:33;14.10;99.90
837;DHT22;400;53.550;9.932;2023-04-24T02:03:01;14.00;99.90
837;DHT22;400;53.550;9.932;2023-04-24T02:05:28;13.80;99.90
837;DHT22;400;53.550;9.932;2023-04-24T02:07:56;13.70;99.90
837;DHT22;400;53.550;9.932;2023-04-24T02:10:23;13.70;99.90
837;DHT22;400;53.550;9.932;2023-04-24T02:12:50;13.60;99.90
837;DHT22;400;53.550;9.932;2023-04-24T02:15:19;13.60;99.90
837;DHT22;400;53.550;9.932;2023-04-24T02:17:45;13.60;99.90
837;DHT22;400;53.550;9.932;2023-04-24T02:20:12;13.50;99.90
837;DHT22;400;53.550;9.932;2023-04-24T02:22:39;13.50;99.90
837;DHT22;400;53.550;9.932;2023-04-24T02:25:07;13.40;99.90
837;DHT22;400;53.550;9.932;2023-04-24T02:27:34;13.50;99.90
837;DHT22;400;53.550;9.932;2023-04-24T02:30:01;13.50;99.90
837;DHT22;400;53.550;9.932;2023-04-24T02:32:29;13.50;99.90
837;DHT22;400;53.550;9.932;2023-04-24T02:34:56;13.50;99.90
837;DHT22;400;53.550;9.932;2023-04-24T02:37:23;13.50;99.90
837;DHT22;400;53.550;9.932;2023-04-24T02:39:50;13.50;99.90
837;DHT22;400;53.550;9.932;2023-04-24T02:42:17;13.50;99.90
837;DHT22;400;53.550;9.932;2023-04-24T02:44:44;13.50;99.90
837;DHT22;400;53.550;9.932;2023-04-24T02:47:11;13.50;99.90
837;DHT22;400;53.550;9.932;2023-04-24T02:49:40;13.40;99.90
837;DHT22;400;53.550;9.932;2023-04-24T02:52:07;13.40;99.90
837;DHT22;400;53.550;9.932;2023-04-24T02:54:34;13.30;99.90
837;DHT22;400;53.550;9.932;2023-04-24T02:57:01;13.20;99.90
837;DHT22;400;53.550;9.932;2023-04-24T02:59:28;13.30;99.90
837;DHT22;400;53.550;9.932;2023-04-24T03:01:57;13.30;99.90
837;DHT22;400;53.550;9.932;2023-04-24T03:04:26;13.20;99.90
837;DHT22;400;53.550;9.932;2023-04-24T03:07:00;13.20;99.90
837;DHT22;400;53.550;9.932;2023-04-24T03:09:30;13.10;99.90
837;DHT22;400;53.550;9.932;2023-04-24T03:11:56;13.10;99.90
837;DHT22;400;53.550;9.932;2023-04-24T03:14:23;13.10;99.90
837;DHT22;400;53.550;9.932;2023-04-24T03:16:50;13.10;99.90
837;DHT22;400;53.550;9.932;2023-04-24T03:19:17;13.10;99.90
837;DHT22;400;53.550;9.932;2023-04-24T03:21:44;13.10;99.90
837;DHT22;400;53.550;9.932;2023-04-24T03:24:14;13.00;99.90
837;DHT22;400;53.550;9.932;2023-04-24T03:26:40;13.00;99.90
837;DHT22;400;53.550;9.932;2023-04-24T03:29:08;12.90;99.90
837;DHT22;400;53.550;9.932;2023-04-24T03:31:35;12.90;99.90
837;DHT22;400;53.550;9.932;2023-04-24T03:34:02;12.90;99.90
837;DHT22;400;53.550;9.932;2023-04-24T03:36:29;12.90;99.90
837;DHT22;400;53.550;9.932;2023-04-24T03:38:56;12.80;99.90
837;DHT22;400;53.550;9.932;2023-04-24T03:41:25;12.80;99.90
837;DHT22;400;53.550;9.932;2023-04-24T03:43:52;12.70;99.90
837;DHT22;400;53.550;9.932;2023-04-24T03:46:19;12.70;99.90
837;DHT22;400;53.550;9.932;2023-04-24T03:48:48;12.70;99.90
837;DHT22;400;53.550;9.932;2023-04-24T03:51:20;12.70;99.90
837;DHT22;400;53.550;9.932;2023-04-24T03:53:49;12.60;99.90
837;DHT22;400;53.550;9.932;2023-04-24T03:56:18;12.60;99.90
837;DHT22;400;53.550;9.932;2023-04-24T03:58:46;12.60;99.90
837;DHT22;400;53.550;9.932;2023-04-24T04:01:15;12.50;99.90
837;DHT22;400;53.550;9.932;2023-04-24T04:03:45;12.50;99.90
837;DHT22;400;53.550;9.932;2023-04-24T04:06:12;12.50;99.90
837;DHT22;400;53.550;9.932;2023-04-24T04:08:40;12.40;99.90
837;DHT22;400;53.550;9.932;2023-04-24T04:11:07;12.50;99.90
837;DHT22;400;53.550;9.932;2023-04-24T04:13:34;12.50;99.90
837;DHT22;400;53.550;9.932;2023-04-24T04:16:03;12.50;99.90
837;DHT22;400;53.550;9.932;2023-04-24T04:18:30;12.40;99.90
837;DHT22;400;53.550;9.932;2023-04-24T04:20:56;12.40;99.90
837;DHT22;400;53.550;9.932;2023-04-24T04:23:24;12.50;99.90
837;DHT22;400;53.550;9.932;2023-04-24T04:25:51;12.40;99.90
837;DHT22;400;53.550;9.932;2023-04-24T04:28:21;12.50;99.90
837;DHT22;400;53.550;9.932;2023-04-24T04:30:48;12.50;99.90
837;DHT22;400;53.550;9.932;2023-04-24T04:33:16;12.40;99.90
837;DHT22;400;53.550;9.932;2023-04-24T04:35:43;12.40;99.90
837;DHT22;400;53.550;9.932;2023-04-24T04:38:15;12.30;99.90
837;DHT22;400;53.550;9.932;2023-04-24T04:40:43;12.30;99.90
837;DHT22;400;53.550;9.932;2023-04-24T04:43:10;12.30;99.90
837;DHT22;400;53.550;9.932;2023-04-24T04:45:39;12.40;99.90
837;DHT22;400;53.550;9.932;2023-04-24T04:48:08;12.50;99.90
837;DHT22;400;53.550;9.932;2023-04-24T04:50:41;12.50;99.90
837;DHT22;400;53.550;9.932;2023-04-24T04:53:15;12.50;99.90
837;DHT22;400;53.550;9.932;2023-04-24T04:55:45;12.50;99.90
837;DHT22;400;53.550;9.932;2023-04-24T04:58:15;12.70;99.90
837;DHT22;400;53.550;9.932;2023-04-24T05:00:48;12.60;99.90
837;DHT22;400;53.550;9.932;2023-04-24T05:03:16;12.60;99.90
837;DHT22;400;53.550;9.932;2023-04-24T05:05:44;12.70;99.90
837;DHT22;400;53.550;9.932;2023-04-24T05:08:11;12.70;99.90
837;DHT22;400;53.550;9.932;2023-04-24T05:10:41;12.70;99.90
837;DHT22;400;53.550;9.932;2023-04-24T05:13:09;12.70;99.90
837;DHT22;400;53.550;9.932;2023-04-24T05:15:37;12.70;99.90
837;DHT22;400;53.550;9.932;2023-04-24T05:18:04;12.70;99.90
837;DHT22;400;53.550;9.932;2023-04-24T05:20:31;12.70;99.90
837;DHT22;400;53.550;9.932;2023-04-24T05:22:59;12.70;99.90
837;DHT22;400;53.550;9.932;2023-04-24T05:25:26;12.80;99.90
837;DHT22;400;53.550;9.932;2023-04-24T05:27:53;12.80;99.90
837;DHT22;400;53.550;9.932;2023-04-24T05:30:20;12.80;99.90
837;DHT22;400;53.550;9.932;2023-04-24T05:32:49;12.80;99.90
837;DHT22;400;53.550;9.932;2023-04-24T05:35:17;12.90;99.90
837;DHT22;400;53.550;9.932;2023-04-24T05:37:45;12.90;99.90
837;DHT22;400;53.550;9.932;2023-04-24T05:40:15;12.80;99.90
837;DHT22;400;53.550;9.932;2023-04-24T05:42:43;12.90;99.90
837;DHT22;400;53.550;9.932;2023-04-24T05:45:12;12.90;99.90
837;DHT22;400;53.550;9.932;2023-04-24T05:47:48;12.80;99.90
837;DHT22;400;53.550;9.932;2023-04-24T05:50:24;12.80;99.90
837;DHT22;400;53.550;9.932;2023-04-24T05:52:52;12.80;99.90
837;DHT22;400;53.550;9.932;2023-04-24T05:55:22;12.90;99.90
837;DHT22;400;53.550;9.932;2023-04-24T05:57:50;12.90;99.90
837;DHT22;400;53.550;9.932;2023-04-24T06:00:17;13.00;99.90
837;DHT22;400;53.550;9.932;2023-04-24T06:02:45;13.00;99.90
837;DHT22;400;53.550;9.932;2023-04-24T06:05:13;12.90;99.90
837;DHT22;400;53.550;9.932;2023-04-24T06:07:40;13.00;99.90
837;DHT22;400;53.550;9.932;2023-04-24T06:10:12;13.00;99.90
837;DHT22;400;53.550;9.932;2023-04-24T06:12:54;13.00;99.90
837;DHT22;400;53.550;9.932;2023-04-24T06:15:29;13.00;99.90
837;DHT22;400;53.550;9.932;2023-04-24T06:18:01;13.10;99.90
837;DHT22;400;53.550;9.932;2023-04-24T06:20:32;13.20;99.90
837;DHT22;400;53.550;9.932;2023-04-24T06:23:02;13.20;99.90
837;DHT22;400;53.550;9.932;2023-04-24T06:25:32;13.20;99.90
837;DHT22;400;53.550;9.932;2023-04-24T06:28:04;13.10;99.90
837;DHT22;400;53.550;9.932;2023-04-24T06:30:41;13.20;99.90
837;DHT22;400;53.550;9.932;2023-04-24T06:33:18;13.30;99.90
837;DHT22;400;53.550;9.932;2023-04-24T06:35:52;13.30;99.90
837;DHT22;400;53.550;9.932;2023-04-24T06:38:24;13.30;99.90
837;DHT22;400;53.550;9.932;2023-04-24T06:41:00;13.40;99.90
837;DHT22;400;53.550;9.932;2023-04-24T06:43:40;13.40;99.90
837;DHT22;400;53.550;9.932;2023-04-24T06:46:11;13.40;99.90
837;DHT22;400;53.550;9.932;2023-04-24T06:48:42;13.50;99.90
837;DHT22;400;53.550;9.932;2023-04-24T06:51:09;13.50;99.90
837;DHT22;400;53.550;9.932;2023-04-24T06:53:42;13.50;99.90
837;DHT22;400;53.550;9.932;2023-04-24T06:56:09;13.60;99.90
837;DHT22;400;53.550;9.932;2023-04-24T06:58:41;13.70;99.90
837;DHT22;400;53.550;9.932;2023-04-24T07:01:10;13.70;99.90
837;DHT22;400;53.550;9.932;2023-04-24T07:03:42;13.80;99.90
837;DHT22;400;53.550;9.932;2023-04-24T07:06:12;13.90;99.90
837;DHT22;400;53.550;9.932;2023-04-24T07:08:41;14.00;99.90
837;DHT22;400;53.550;9.932;2023-04-24T07:11:09;14.00;99.90
837;DHT22;400;53.550;9.932;2023-04-24T07:13:37;14.10;99.90
837;DHT22;400;53.550;9.932;2023-04-24T07:16:11;14.10;99.90
837;DHT22;400;53.550;9.932;2023-04-24T07:18:41;14.20;99.90
837;DHT22;400;53.550;9.932;2023-04-24T07:21:09;14.30;99.90
837;DHT22;400;53.550;9.932;2023-04-24T07:23:39;14.20;99.90
837;DHT22;400;53.550;9.932;2023-04-24T07:26:10;14.20;99.90
837;DHT22;400;53.550;9.932;2023-04-24T07:28:42;14.20;99.90
837;DHT22;400;53.550;9.932;2023-04-24T07:31:15;14.30;99.90
837;DHT22;400;53.550;9.932;2023-04-24T07:33:46;14.30;99.90
837;DHT22;400;53.550;9.932;2023-04-24T07:36:16;14.40;99.90
837;DHT22;400;53.550;9.932;2023-04-24T07:38:47;14.30;99.90
837;DHT22;400;53.550;9.932;2023-04-24T07:41:17;14.30;99.90
837;DHT22;400;53.550;9.932;2023-04-24T07:43:47;14.40;99.90
837;DHT22;400;53.550;9.932;2023-04-24T07:46:17;14.30;99.90
837;DHT22;400;53.550;9.932;2023-04-24T07:48:47;14.30;99.90
837;DHT22;400;53.550;9.932;2023-04-24T07:51:14;14.40;99.90
837;DHT22;400;53.550;9.932;2023-04-24T07:53:42;14.40;99.90
837;DHT22;400;53.550;9.932;2023-04-24T07:56:12;14.40;99.90
837;DHT22;400;53.550;9.932;2023-04-24T07:58:44;14.50;99.90
837;DHT22;400;53.550;9.932;2023-04-24T08:01:12;14.50;99.90
837;DHT22;400;53.550;9.932;2023-04-24T08:03:40;14.60;99.90
837;DHT22;400;53.550;9.932;2023-04-24T08:06:07;14.60;99.90
837;DHT22;400;53.550;9.932;2023-04-24T08:08:35;14.70;99.90
837;DHT22;400;53.550;9.932;2023-04-24T08:11:06;14.50;99.90
837;DHT22;400;53.550;9.932;2023-04-24T08:13:37;14.60;99.90
837;DHT22;400;53.550;9.932;2023-04-24T08:16:06;14.60;99.90
837;DHT22;400;53.550;9.932;2023-04-24T08:18:33;14.50;99.90
837;DHT22;400;53.550;9.932;2023-04-24T08:21:03;14.50;99.90
837;DHT22;400;53.550;9.932;2023-04-24T08:23:33;14.50;99.90
837;DHT22;400;53.550;9.932;2023-04-24T08:26:00;14.50;99.90
837;DHT22;400;53.550;9.932;2023-04-24T08:28:27;14.60;99.90
837;DHT22;400;53.550;9.932;2023-04-24T08:30:54;14.60;99.90
837;DHT22;400;53.550;9.932;2023-04-24T08:33:21;14.70;99.90
837;DHT22;400;53.550;9.932;2023-04-24T08:35:48;14.80;99.90
837;DHT22;400;53.550;9.932;2023-04-24T08:38:17;14.80;99.90
837;DHT22;400;53.550;9.932;2023-04-24T08:40:53;14.80;99.90
837;DHT22;400;53.550;9.932;2023-04-24T08:43:23;14.80;99.90
837;DHT22;400;53.550;9.932;2023-04-24T08:45:55;14.60;99.90
837;DHT22;400;53.550;9.932;2023-04-24T08:48:23;14.60;99.90
837;DHT22;400;53.550;9.932;2023-04-24T08:50:51;14.80;99.90
837;DHT22;400;53.550;9.932;2023-04-24T08:53:26;14.90;99.90
837;DHT22;400;53.550;9.932;2023-04-24T08:55:57;14.80;99.90
837;DHT22;400;53.550;9.932;2023-04-24T08:58:28;14.90;99.90
837;DHT22;400;53.550;9.932;2023-04-24T09:00:55;14.90;99.90
837;DHT22;400;53.550;9.932;2023-04-24T09:03:22;15.00;99.90
837;DHT22;400;53.550;9.932;2023-04-24T09:05:50;14.90;99.90
837;DHT22;400;53.550;9.932;2023-04-24T09:08:18;14.90;99.90
837;DHT22;400;53.550;9.932;2023-04-24T09:10:47;15.10;99.90
837;DHT22;400;53.550;9.932;2023-04-24T09:13:14;15.30;99.90
837;DHT22;400;53.550;9.932;2023-04-24T09:15:42;15.40;99.90
837;DHT22;400;53.550;9.932;2023-04-24T09:18:09;15.50;99.90
837;DHT22;400;53.550;9.932;2023-04-24T09:20:57;15.50;99.90
837;DHT22;400;53.550;9.932;2023-04-24T09:23:29;15.50;99.90
837;DHT22;400;53.550;9.932;2023-04-24T09:26:02;15.50;99.90
837;DHT22;400;53.550;9.932;2023-04-24T09:28:36;15.60;99.90
837;DHT22;400;53.550;9.932;2023-04-24T09:31:05;15.50;99.90
837;DHT22;400;53.550;9.932;2023-04-24T09:33:33;15.40;99.90
837;DHT22;400;53.550;9.932;2023-04-24T09:36:00;15.30;99.90
837;DHT22;400;53.550;9.932;2023-04-24T09:38:34;15.30;99.90
837;DHT22;400;53.550;9.932;2023-04-24T09:41:05;15.30;99.90
837;DHT22;400;53.550;9.932;2023-04-24T09:43:33;15.30;99.90
837;DHT22;400;53.550;9.932;2023-04-24T09:46:05;15.20;99.90
837;DHT22;400;53.550;9.932;2023-04-24T09:48:32;15.10;99.90
837;DHT22;400;53.550;9.932;2023-04-24T09:51:01;15.00;99.90
837;DHT22;400;53.550;9.932;2023-04-24T09:53:30;15.00;99.90
837;DHT22;400;53.550;9.932;2023-04-24T09:56:08;15.00;99.90
837;DHT22;400;53.550;9.932;2023-04-24T09:58:37;15.10;99.90
837;DHT22;400;53.550;9.932;2023-04-24T10:01:07;15.20;99.90
837;DHT22;400;53.550;9.932;2023-04-24T10:03:34;15.10;99.90
837;DHT22;400;53.550;9.932;2023-04-24T10:06:02;15.10;99.90
837;DHT22;400;53.550;9.932;2023-04-24T10:08:35;15.00;99.90
837;DHT22;400;53.550;9.932;2023-04-24T10:11:04;15.00;99.90
837;DHT22;400;53.550;9.932;2023-04-24T10:13:32;15.00;99.90
837;DHT22;400;53.550;9.932;2023-04-24T10:16:01;15.00;99.90
837;DHT22;400;53.550;9.932;2023-04-24T10:18:32;15.00;99.90
837;DHT22;400;53.550;9.932;2023-04-24T10:21:03;14.70;99.90
837;DHT22;400;53.550;9.932;2023-04-24T10:23:32;14.80;99.90
837;DHT22;400;53.550;9.932;2023-04-24T10:26:00;14.90;99.90
837;DHT22;400;53.550;9.932;2023-04-24T10:28:29;14.80;99.90
837;DHT22;400;53.550;9.932;2023-04-24T10:31:00;14.90;99.90
837;DHT22;400;53.550;9.932;2023-04-24T10:33:28;14.90;99.90
837;DHT22;400;53.550;9.932;2023-04-24T10:35:57;15.00;99.90
837;DHT22;400;53.550;9.932;2023-04-24T10:38:28;14.90;99.90
837;DHT22;400;53.550;9.932;2023-04-24T10:41:06;15.10;99.90
837;DHT22;400;53.550;9.932;2023-04-24T10:43:40;15.10;99.90
837;DHT22;400;53.550;9.932;2023-04-24T10:46:11;15.00;99.90
837;DHT22;400;53.550;9.932;2023-04-24T10:48:53;15.10;99.90
837;DHT22;400;53.550;9.932;2023-04-24T10:51:23;15.10;99.90
837;DHT22;400;53.550;9.932;2023-04-24T10:53:50;15.20;99.90
837;DHT22;400;53.550;9.932;2023-04-24T10:56:17;15.30;99.90
837;DHT22;400;53.550;9.932;2023-04-24T10:58:50;15.40;99.90
837;DHT22;400;53.550;9.932;2023-04-24T11:01:25;15.30;99.90
837;DHT22;400;53.550;9.932;2023-04-24T11:03:55;15.10;99.90
837;DHT22;400;53.550;9.932;2023-04-24T11:06:32;15.20;99.90
837;DHT22;400;53.550;9.932;2023-04-24T11:09:05;15.30;99.90
837;DHT22;400;53.550;9.932;2023-04-24T11:11:36;15.10;99.90
837;DHT22;400;53.550;9.932;2023-04-24T11:14:13;15.30;99.90
837;DHT22;400;53.550;9.932;2023-04-24T11:16:44;15.30;99.90
837;DHT22;400;53.550;9.932;2023-04-24T11:19:22;15.30;99.90
837;DHT22;400;53.550;9.932;2023-04-24T11:21:55;15.40;99.90
837;DHT22;400;53.550;9.932;2023-04-24T11:24:31;15.50;99.90
837;DHT22;400;53.550;9.932;2023-04-24T11:27:00;15.40;99.90
837;DHT22;400;53.550;9.932;2023-04-24T11:29:47;15.30;99.90
837;DHT22;400;53.550;9.932;2023-04-24T11:32:15;15.40;99.90
837;DHT22;400;53.550;9.932;2023-04-24T11:34:46;15.20;99.90
837;DHT22;400;53.550;9.932;2023-04-24T11:37:13;15.30;99.90
837;DHT22;400;53.550;9.932;2023-04-24T11:39:40;15.20;99.90
837;DHT22;400;53.550;9.932;2023-04-24T11:42:07;15.30;99.90
837;DHT22;400;53.550;9.932;2023-04-24T11:44:35;15.30;99.90
837;DHT22;400;53.550;9.932;2023-04-24T11:47:05;15.50;99.90
837;DHT22;400;53.550;9.932;2023-04-24T11:49:33;15.40;99.90
837;DHT22;400;53.550;9.932;2023-04-24T11:52:03;15.50;99.90
837;DHT22;400;53.550;9.932;2023-04-24T11:54:32;15.40;99.90
837;DHT22;400;53.550;9.932;2023-04-24T11:56:58;15.30;99.90
837;DHT22;400;53.550;9.932;2023-04-24T11:59:26;15.30;99.90
837;DHT22;400;53.550;9.932;2023-04-24T12:01:53;15.30;99.90
837;DHT22;400;53.550;9.932;2023-04-24T12:04:23;15.30;99.90
837;DHT22;400;53.550;9.932;2023-04-24T12:07:02;15.10;99.90
837;DHT22;400;53.550;9.932;2023-04-24T12:09:42;15.20;99.90
837;DHT22;400;53.550;9.932;2023-04-24T12:12:12;15.40;99.90
837;DHT22;400;53.550;9.932;2023-04-24T12:14:46;15.20;99.90
837;DHT22;400;53.550;9.932;2023-04-24T12:17:13;15.20;99.90
837;DHT22;400;53.550;9.932;2023-04-24T12:19:46;15.20;99.90
837;DHT22;400;53.550;9.932;2023-04-24T12:22:14;15.00;99.90
837;DHT22;400;53.550;9.932;2023-04-24T12:25:00;15.00;99.90
837;DHT22;400;53.550;9.932;2023-04-24T12:27:31;15.10;99.90
837;DHT22;400;53.550;9.932;2023-04-24T12:30:00;15.00;99.90
837;DHT22;400;53.550;9.932;2023-04-24T12:32:27;15.00;99.90
837;DHT22;400;53.550;9.932;2023-04-24T12:34:56;15.00;99.90
837;DHT22;400;53.550;9.932;2023-04-24T12:37:24;14.90;99.90
837;DHT22;400;53.550;9.932;2023-04-24T12:40:05;14.60;99.90
837;DHT22;400;53.550;9.932;2023-04-24T12:42:33;14.80;99.90
837;DHT22;400;53.550;9.932;2023-04-24T12:45:03;14.90;99.90
837;DHT22;400;53.550;9.932;2023-04-24T12:47:36;14.90;99.90
837;DHT22;400;53.550;9.932;2023-04-24T12:50:11;14.90;99.90
837;DHT22;400;53.550;9.932;2023-04-24T12:52:41;14.90;99.90
837;DHT22;400;53.550;9.932;2023-04-24T12:55:12;14.90;99.90
837;DHT22;400;53.550;9.932;2023-04-24T12:57:40;15.00;99.90
837;DHT22;400;53.550;9.932;2023-04-24T13:00:09;15.00;99.90
837;DHT22;400;53.550;9.932;2023-04-24T13:02:36;15.00;99.90
837;DHT22;400;53.550;9.932;2023-04-24T13:05:04;14.90;99.90
837;DHT22;400;53.550;9.932;2023-04-24T13:07:33;14.80;99.90
837;DHT22;400;53.550;9.932;2023-04-24T13:10:03;14.60;99.90
837;DHT22;400;53.550;9.932;2023-04-24T13:12:34;14.70;99.90
837;DHT22;400;53.550;9.932;2023-04-24T13:15:04;14.80;99.90
837;DHT22;400;53.550;9.932;2023-04-24T13:17:34;14.80;99.90
837;DHT22;400;53.550;9.932;2023-04-24T13:20:01;14.60;99.90
837;DHT22;400;53.550;9.932;2023-04-24T13:22:29;14.80;99.90
837;DHT22;400;53.550;9.932;2023-04-24T13:25:01;14.50;99.90
837;DHT22;400;53.550;9.932;2023-04-24T13:27:31;14.60;99.90
837;DHT22;400;53.550;9.932;2023-04-24T13:29:58;14.50;99.90
837;DHT22;400;53.550;9.932;2023-04-24T13:32:25;14.30;99.90
837;DHT22;400;53.550;9.932;2023-04-24T13:34:52;14.50;99.90
837;DHT22;400;53.550;9.932;2023-04-24T13:37:21;14.50;99.90
837;DHT22;400;53.550;9.932;2023-04-24T13:39:48;14.60;99.90
837;DHT22;400;53.550;9.932;2023-04-24T13:42:18;14.40;99.90
837;DHT22;400;53.550;9.932;2023-04-24T13:44:48;14.50;99.90
837;DHT22;400;53.550;9.932;2023-04-24T13:47:16;14.60;99.90
837;DHT22;400;53.550;9.932;2023-04-24T13:49:44;14.70;99.90
837;DHT22;400;53.550;9.932;2023-04-24T13:52:10;14.80;99.90
837;DHT22;400;53.550;9.932;2023-04-24T13:54:37;14.80;99.90
837;DHT22;400;53.550;9.932;2023-04-24T13:57:06;14.80;99.90
837;DHT22;400;53.550;9.932;2023-04-24T13:59:40;14.70;99.90
837;DHT22;400;53.550;9.932;2023-04-24T14:02:12;14.70;99.90
837;DHT22;400;53.550;9.932;2023-04-24T14:04:41;14.70;99.90
837;DHT22;400;53.550;9.932;2023-04-24T14:07:09;14.80;99.90
837;DHT22;400;53.550;9.932;2023-04-24T14:09:36;14.80;99.90
837;DHT22;400;53.550;9.932;2023-04-24T14:12:06;14.70;99.90
837;DHT22;400;53.550;9.932;2023-04-24T14:17:58;14.60;99.90
837;DHT22;400;53.550;9.932;2023-04-24T14:20:25;14.60;99.90
837;DHT22;400;53.550;9.932;2023-04-24T14:22:52;14.50;99.90
837;DHT22;400;53.550;9.932;2023-04-24T14:25:20;14.60;99.90
837;DHT22;400;53.550;9.932;2023-04-24T14:27:48;14.60;99.90
837;DHT22;400;53.550;9.932;2023-04-24T14:30:17;14.50;99.90
837;DHT22;400;53.550;9.932;2023-04-24T14:32:46;14.40;99.90
837;DHT22;400;53.550;9.932;2023-04-24T14:35:14;14.30;99.90
837;DHT22;400;53.550;9.932;2023-04-24T14:37:41;14.00;99.90
837;DHT22;400;53.550;9.932;2023-04-24T14:40:11;13.60;99.90
837;DHT22;400;53.550;9.932;2023-04-24T14:42:43;13.20;99.90
837;DHT22;400;53.550;9.932;2023-04-24T14:45:14;12.90;99.90
837;DHT22;400;53.550;9.932;2023-04-24T14:47:41;12.60;99.90
837;DHT22;400;53.550;9.932;2023-04-24T14:50:08;12.80;99.90
837;DHT22;400;53.550;9.932;2023-04-24T14:52:37;12.70;99.90
837;DHT22;400;53.550;9.932;2023-04-24T14:55:05;12.80;99.90
837;DHT22;400;53.550;9.932;2023-04-24T14:57:33;13.00;99.90
837;DHT22;400;53.550;9.932;2023-04-24T15:00:00;13.00;99.90
837;DHT22;400;53.550;9.932;2023-04-24T15:02:27;13.00;99.90
837;DHT22;400;53.550;9.932;2023-04-24T15:04:53;12.70;99.90
837;DHT22;400;53.550;9.932;2023-04-24T15:07:20;12.80;99.90
837;DHT22;400;53.550;9.932;2023-04-24T15:09:50;12.70;99.90
837;DHT22;400;53.550;9.932;2023-04-24T15:12:18;12.80;99.90
837;DHT22;400;53.550;9.932;2023-04-24T15:14:45;12.60;99.90
837;DHT22;400;53.550;9.932;2023-04-24T15:17:13;12.60;99.90
837;DHT22;400;53.550;9.932;2023-04-24T15:19:41;12.60;99.90
837;DHT22;400;53.550;9.932;2023-04-24T15:22:09;12.10;99.90
837;DHT22;400;53.550;9.932;2023-04-24T15:24:36;11.90;99.90
837;DHT22;400;53.550;9.932;2023-04-24T15:27:04;12.00;99.90
837;DHT22;400;53.550;9.932;2023-04-24T15:29:31;11.70;99.90
837;DHT22;400;53.550;9.932;2023-04-24T15:31:59;11.40;99.90
837;DHT22;400;53.550;9.932;2023-04-24T15:34:26;11.50;99.90
837;DHT22;400;53.550;9.932;2023-04-24T15:36:55;11.50;99.90
837;DHT22;400;53.550;9.932;2023-04-24T15:39:23;11.30;99.90
837;DHT22;400;53.550;9.932;2023-04-24T15:41:52;11.30;99.90
837;DHT22;400;53.550;9.932;2023-04-24T15:44:21;11.10;99.90
837;DHT22;400;53.550;9.932;2023-04-24T15:46:49;10.80;99.90
837;DHT22;400;53.550;9.932;2023-04-24T15:49:20;10.70;99.90
837;DHT22;400;53.550;9.932;2023-04-24T15:51:49;10.60;99.90
837;DHT22;400;53.550;9.932;2023-04-24T15:54:16;10.40;99.90
837;DHT22;400;53.550;9.932;2023-04-24T15:56:43;10.30;99.90
837;DHT22;400;53.550;9.932;2023-04-24T15:59:11;10.40;99.90
837;DHT22;400;53.550;9.932;2023-04-24T16:01:41;10.30;99.90
837;DHT22;400;53.550;9.932;2023-04-24T16:04:09;10.40;99.90
837;DHT22;400;53.550;9.932;2023-04-24T16:06:36;10.40;99.90
837;DHT22;400;53.550;9.932;2023-04-24T16:09:05;10.20;99.90
837;DHT22;400;53.550;9.932;2023-04-24T16:11:33;10.30;99.90
837;DHT22;400;53.550;9.932;2023-04-24T16:14:01;10.20;99.90
837;DHT22;400;53.550;9.932;2023-04-24T16:16:29;10.10;99.90
837;DHT22;400;53.550;9.932;2023-04-24T16:18:57;10.00;99.90
837;DHT22;400;53.550;9.932;2023-04-24T16:21:24;9.80;99.90
837;DHT22;400;53.550;9.932;2023-04-24T16:23:51;9.70;99.90
837;DHT22;400;53.550;9.932;2023-04-24T16:26:18;9.70;99.90
837;DHT22;400;53.550;9.932;2023-04-24T16:28:45;9.70;99.90
837;DHT22;400;53.550;9.932;2023-04-24T16:31:13;9.60;99.90
837;DHT22;400;53.550;9.932;2023-04-24T16:33:41;9.60;99.90
837;DHT22;400;53.550;9.932;2023-04-24T16:36:10;9.50;99.90
837;DHT22;400;53.550;9.932;2023-04-24T16:38:38;9.50;99.90
837;DHT22;400;53.550;9.932;2023-04-24T16:41:04;9.50;99.90
837;DHT22;400;53.550;9.932;2023-04-24T16:43:32;9.30;99.90
837;DHT22;400;53.550;9.932;2023-04-24T16:45:58;9.20;99.90
837;DHT22;400;53.550;9.932;2023-04-24T16:48:26;9.30;99.90
837;DHT22;400;53.550;9.932;2023-04-24T16:50:53;9.40;99.90